createdAt,value
2019-04-16T00:01:56.618Z,19.35
2019-04-16T00:07:52.428Z,19.32
2019-04-16T00:10:52.085Z,18.85
2019-04-16T00:13:51.842Z,18.33
2019-04-16T00:16:33.049Z,17.82
2019-04-16T00:19:13.511Z,16.82
2019-04-16T00:22:13.228Z,17.82
2019-04-16T00:24:56.387Z,17.12
2019-04-16T00:27:37.024Z,19.12
2019-04-16T00:30:18.122Z,19.02
2019-04-16T00:32:58.502Z,17.75
2019-04-16T00:35:39.037Z,18.33
2019-04-16T00:38:22.462Z,18.62
2019-04-16T00:41:02.728Z,19.98
2019-04-16T00:43:44.245Z,17.95
2019-04-16T00:46:25.107Z,20.02
2019-04-16T00:49:05.771Z,17.87
2019-04-16T00:51:46.848Z,18.75
2019-04-16T00:54:27.780Z,18.02
2019-04-16T00:57:08.427Z,20.17
2019-04-16T00:59:49.052Z,19.35
2019-04-16T01:02:29.938Z,20.77
2019-04-16T01:05:10.986Z,18.92
2019-04-16T01:07:51.591Z,18.92
2019-04-16T01:10:32.572Z,18.20
2019-04-16T01:13:13.505Z,19.00
2019-04-16T01:15:54.348Z,17.62
2019-04-16T01:18:38.532Z,20.30
2019-04-16T01:21:18.246Z,17.07
2019-04-16T01:23:58.984Z,19.53
2019-04-16T01:26:39.904Z,17.80
2019-04-16T01:29:20.458Z,18.07
2019-04-16T01:32:20.052Z,18.23
2019-04-16T01:35:20.305Z,17.92
2019-04-16T01:38:20.071Z,19.60
2019-04-16T01:41:02.482Z,17.60
2019-04-16T01:43:43.528Z,19.37
2019-04-16T01:46:24.511Z,19.12
2019-04-16T01:49:09.711Z,17.73
2019-04-16T01:51:48.185Z,18.98
2019-04-16T01:54:29.393Z,18.65
2019-04-16T01:57:10.105Z,20.10
2019-04-16T01:59:50.994Z,19.23
2019-04-16T02:02:31.768Z,18.70
2019-04-16T02:05:12.538Z,19.37
2019-04-16T02:07:53.239Z,19.52
2019-04-16T02:10:35.480Z,18.27
2019-04-16T02:13:17.082Z,20.02
2019-04-16T02:15:57.573Z,18.00
2019-04-16T02:18:38.213Z,19.40
2019-04-16T02:21:18.776Z,18.77
2019-04-16T02:23:59.932Z,20.50
2019-04-16T02:26:40.774Z,20.00
2019-04-16T02:29:21.474Z,20.00
2019-04-16T02:32:02.206Z,19.55
2019-04-16T02:34:43.145Z,19.17
2019-04-16T02:37:23.743Z,19.82
2019-04-16T02:40:04.239Z,18.52
2019-04-16T02:42:45.210Z,19.50
2019-04-16T02:45:25.661Z,22.37
2019-04-16T02:48:06.429Z,21.35
2019-04-16T02:50:49.628Z,17.73
2019-04-16T02:53:49.689Z,19.30
2019-04-16T02:56:52.049Z,19.02
2019-04-16T02:59:35.752Z,18.67
2019-04-16T03:02:36.061Z,17.82
2019-04-16T03:08:15.084Z,18.17
2019-04-16T03:10:55.817Z,19.17
2019-04-16T03:13:36.745Z,19.05
2019-04-16T03:19:33.448Z,18.82
2019-04-16T03:22:14.507Z,19.25
2019-04-16T03:24:55.535Z,20.73
2019-04-16T03:27:35.929Z,20.23
2019-04-16T03:30:16.629Z,19.62
2019-04-16T03:32:57.326Z,19.37
2019-04-16T03:35:38.525Z,18.67
2019-04-16T03:38:19.162Z,19.17
2019-04-16T03:40:59.608Z,18.00
2019-04-16T03:43:40.393Z,19.42
2019-04-16T03:46:21.178Z,19.70
2019-04-16T03:49:02.377Z,19.70
2019-04-16T03:51:42.997Z,21.37
2019-04-16T03:54:23.882Z,20.20
2019-04-16T03:57:05.112Z,20.62
2019-04-16T03:59:46.002Z,18.50
2019-04-16T04:02:26.817Z,19.07
2019-04-16T04:05:07.850Z,19.17
2019-04-16T04:07:49.088Z,17.62
2019-04-16T04:10:31.291Z,19.52
2019-04-16T04:13:17.533Z,18.77
2019-04-16T04:15:55.220Z,20.32
2019-04-16T04:18:36.291Z,17.37
2019-04-16T04:21:21.136Z,17.80
2019-04-16T04:24:00.708Z,21.33
2019-04-16T04:26:42.436Z,18.17
2019-04-16T04:29:24.882Z,20.02
2019-04-16T04:32:06.020Z,18.65
2019-04-16T04:34:48.696Z,17.75
2019-04-16T04:37:31.197Z,18.37
2019-04-16T04:40:12.949Z,17.37
2019-04-16T04:42:57.594Z,18.40
2019-04-16T04:45:37.714Z,19.25
2019-04-16T04:48:23.027Z,19.15
2019-04-16T04:51:06.994Z,20.72
2019-04-16T04:53:47.533Z,19.15
2019-04-16T04:56:28.136Z,19.87
2019-04-16T04:59:09.871Z,18.92
2019-04-16T05:01:51.407Z,18.67
2019-04-16T05:04:39.136Z,19.52
2019-04-16T05:07:20.559Z,18.48
2019-04-16T05:10:01.539Z,20.85
2019-04-16T05:12:45.879Z,17.75
2019-04-16T05:15:29.357Z,18.70
2019-04-16T05:18:10.799Z,19.30
2019-04-16T05:20:52.325Z,17.95
2019-04-16T05:23:33.459Z,20.08
2019-04-16T05:26:14.017Z,19.20
2019-04-16T05:28:56.672Z,19.48
2019-04-16T05:31:37.333Z,20.10
2019-04-16T05:34:18.435Z,19.67
2019-04-16T05:36:59.411Z,18.57
2019-04-16T05:39:40.561Z,18.63
2019-04-16T05:42:22.444Z,18.37
2019-04-16T05:45:05.660Z,18.73
2019-04-16T05:47:49.047Z,19.75
2019-04-16T05:50:30.100Z,19.00
2019-04-16T05:53:13.200Z,22.05
2019-04-16T05:56:13.241Z,19.48
2019-04-16T05:58:54.473Z,19.92
2019-04-16T06:01:39.273Z,19.37
2019-04-16T06:04:24.241Z,18.57
2019-04-16T06:07:07.334Z,21.80
2019-04-16T06:09:45.419Z,19.75
2019-04-16T06:12:33.154Z,19.05
2019-04-16T06:18:38.605Z,17.95
2019-04-16T06:21:38.765Z,20.15
2019-04-16T06:24:40.129Z,20.15
2019-04-16T06:27:17.071Z,21.62
2019-04-16T06:30:24.449Z,18.98
2019-04-16T06:33:31.507Z,20.60
2019-04-16T06:36:31.042Z,18.32
2019-04-16T06:39:18.161Z,18.73
2019-04-16T06:42:22.514Z,18.32
2019-04-16T06:48:13.991Z,20.95
2019-04-16T06:51:19.966Z,18.12
2019-04-16T06:54:21.255Z,17.57
2019-04-16T06:57:15.018Z,19.98
2019-04-16T07:00:15.301Z,18.30
2019-04-16T07:03:14.824Z,17.48
2019-04-16T07:06:14.800Z,18.65
2019-04-16T07:09:09.663Z,16.17
2019-04-16T07:11:54.551Z,17.67
2019-04-16T07:14:36.202Z,16.30
2019-04-16T07:17:18.290Z,16.97
2019-04-16T07:19:59.325Z,16.02
2019-04-16T07:22:40.013Z,18.25
2019-04-16T07:25:21.179Z,16.27
2019-04-16T07:28:06.706Z,16.60
2019-04-16T07:30:54.416Z,16.50
2019-04-16T07:33:42.652Z,17.87
2019-04-16T07:36:31.498Z,16.75
2019-04-16T07:39:36.926Z,15.88
2019-04-16T07:42:27.923Z,16.93
2019-04-16T07:45:21.248Z,17.73
2019-04-16T07:48:06.782Z,16.10
2019-04-16T07:51:07.173Z,17.43
2019-04-16T07:54:07.460Z,19.53
2019-04-16T07:56:49.938Z,16.82
2019-04-16T07:59:32.264Z,16.67
2019-04-16T08:02:13.894Z,16.75
2019-04-16T08:04:54.288Z,16.55
2019-04-16T08:07:34.879Z,17.27
2019-04-16T08:10:16.895Z,17.20
2019-04-16T08:16:07.630Z,15.83
2019-04-16T08:18:51.337Z,18.02
2019-04-16T08:21:32.052Z,16.10
2019-04-16T08:24:17.860Z,17.12
2019-04-16T08:26:59.036Z,16.67
2019-04-16T08:29:39.535Z,16.00
2019-04-16T08:32:20.081Z,15.95
2019-04-16T08:35:01.044Z,15.90
2019-04-16T08:37:48.872Z,15.45
2019-04-16T08:40:24.227Z,15.55
2019-04-16T08:43:05.172Z,16.20
2019-04-16T08:45:45.792Z,17.25
2019-04-16T08:48:26.160Z,16.50
2019-04-16T08:51:07.182Z,16.80
2019-04-16T08:53:48.328Z,19.67
2019-04-16T08:56:28.875Z,15.73
2019-04-16T08:59:11.092Z,16.42
2019-04-16T09:01:54.541Z,16.07
2019-04-16T09:04:35.294Z,18.07
2019-04-16T09:07:35.400Z,17.60
2019-04-16T09:10:23.069Z,18.37
2019-04-16T09:13:04.786Z,16.60
2019-04-16T09:15:45.636Z,15.78
2019-04-16T09:21:36.436Z,17.27
2019-04-16T09:24:22.083Z,16.57
2019-04-16T09:27:08.656Z,18.67
2019-04-16T09:30:11.012Z,18.77
2019-04-16T09:33:16.164Z,18.45
2019-04-16T09:36:15.764Z,18.43
2019-04-16T09:39:09.380Z,18.65
2019-04-16T09:41:51.122Z,18.32
2019-04-16T09:44:35.000Z,19.00
2019-04-16T09:47:14.289Z,18.10
2019-04-16T09:49:54.895Z,18.98
2019-04-16T09:52:36.034Z,19.67
2019-04-16T09:55:19.133Z,18.15
2019-04-16T09:58:05.833Z,19.05
2019-04-16T10:00:47.181Z,20.47
2019-04-16T10:03:34.072Z,19.30
2019-04-16T10:06:14.797Z,20.15
2019-04-16T10:08:56.866Z,19.00
2019-04-16T10:11:37.469Z,19.98
2019-04-16T10:14:18.132Z,19.60
2019-04-16T10:16:59.030Z,20.85
2019-04-16T10:19:43.015Z,19.27
2019-04-16T10:22:22.864Z,20.95
2019-04-16T10:28:15.774Z,20.08
2019-04-16T10:30:57.770Z,19.95
2019-04-16T10:33:39.109Z,20.25
2019-04-16T10:36:19.407Z,20.23
2019-04-16T10:42:30.820Z,19.85
2019-04-16T10:45:31.054Z,19.45
2019-04-16T10:48:30.926Z,20.35
2019-04-16T10:51:30.922Z,20.50
2019-04-16T10:54:37.259Z,20.68
2019-04-16T10:57:38.245Z,22.73
2019-04-16T11:00:37.019Z,21.05
2019-04-16T11:03:22.630Z,22.05
2019-04-16T11:06:09.415Z,20.60
2019-04-16T11:08:50.432Z,19.55
2019-04-16T11:11:31.043Z,21.48
2019-04-16T11:14:11.581Z,22.02
2019-04-16T11:16:52.464Z,21.50
2019-04-16T11:19:33.031Z,19.95
2019-04-16T11:22:13.917Z,22.55
2019-04-16T11:24:54.578Z,20.25
2019-04-16T11:27:35.304Z,22.70
2019-04-16T11:30:34.758Z,23.22
2019-04-16T11:33:15.399Z,24.85
2019-04-16T11:35:55.767Z,22.22
2019-04-16T11:38:36.360Z,25.82
2019-04-16T11:41:17.032Z,22.95
2019-04-16T11:43:57.570Z,23.22
2019-04-16T11:46:38.463Z,24.30
2019-04-16T11:49:20.984Z,21.67
2019-04-16T11:52:01.921Z,23.40
2019-04-16T11:54:46.839Z,22.37
2019-04-16T11:57:25.566Z,22.98
2019-04-16T12:00:09.264Z,21.10
2019-04-16T12:02:56.427Z,21.80
2019-04-16T12:05:57.637Z,21.03
2019-04-16T12:08:51.004Z,20.55
2019-04-16T12:11:39.461Z,21.62
2019-04-16T12:14:42.461Z,19.03
2019-04-16T12:17:41.129Z,17.85
2019-04-16T12:20:41.078Z,18.57
2019-04-16T12:26:41.055Z,20.05
2019-04-16T12:29:43.385Z,17.80
2019-04-16T12:32:43.215Z,18.55
2019-04-16T12:35:45.861Z,17.85
2019-04-16T12:38:35.513Z,17.20
2019-04-16T12:41:30.600Z,16.97
2019-04-16T12:44:44.698Z,19.82
2019-04-16T12:47:37.582Z,18.05
2019-04-16T12:50:37.420Z,17.40
2019-04-16T12:53:37.614Z,17.48
2019-04-16T12:56:41.041Z,16.32
2019-04-16T12:59:23.625Z,18.73
2019-04-16T13:02:23.584Z,18.37
2019-04-16T13:05:21.032Z,18.92
2019-04-16T13:08:19.776Z,19.73
2019-04-16T13:11:19.305Z,16.65
2019-04-16T13:14:12.571Z,15.65
2019-04-16T13:17:03.698Z,16.97
2019-04-16T13:19:56.141Z,16.73
2019-04-16T13:22:39.987Z,16.65
2019-04-16T13:25:24.981Z,17.60
2019-04-16T13:28:06.218Z,15.30
2019-04-16T13:30:47.325Z,15.08
2019-04-16T13:33:27.823Z,15.83
2019-04-16T13:36:08.960Z,15.43
2019-04-16T13:38:54.688Z,16.52
2019-04-16T13:41:35.262Z,15.78
2019-04-16T13:44:17.231Z,16.15
2019-04-16T13:47:01.336Z,17.80
2019-04-16T13:52:36.751Z,17.30
2019-04-16T13:55:38.341Z,16.70
2019-04-16T13:58:38.538Z,16.87
2019-04-16T14:01:22.508Z,17.73
2019-04-16T14:04:03.905Z,16.95
2019-04-16T14:06:46.279Z,19.10
2019-04-16T14:09:27.167Z,16.75
2019-04-16T14:12:08.059Z,16.40
2019-04-16T14:14:49.507Z,16.25
2019-04-16T14:17:30.696Z,16.20
2019-04-16T14:20:12.793Z,15.53
2019-04-16T14:22:54.203Z,15.93
2019-04-16T14:25:35.113Z,14.20
2019-04-16T14:28:18.058Z,14.10
2019-04-16T14:30:58.604Z,14.00
2019-04-16T14:33:45.576Z,15.00
2019-04-16T14:36:26.314Z,13.40
2019-04-16T14:42:19.175Z,14.15
2019-04-16T14:47:56.060Z,14.28
2019-04-16T14:50:36.725Z,14.80
2019-04-16T14:53:36.780Z,15.18
2019-04-16T14:56:21.837Z,15.23
2019-04-16T15:02:34.625Z,14.95
2019-04-16T15:05:34.580Z,15.00
2019-04-16T15:08:35.115Z,15.00
2019-04-16T15:11:35.161Z,13.33
2019-04-16T15:14:26.115Z,14.53
2019-04-16T15:17:17.038Z,18.32
2019-04-16T15:20:17.064Z,16.95
2019-04-16T15:23:17.158Z,17.40
2019-04-16T15:26:16.583Z,15.63
2019-04-16T15:29:06.060Z,16.65
2019-04-16T15:31:54.785Z,17.75
2019-04-16T15:34:42.808Z,17.00
2019-04-16T15:37:33.415Z,17.50
2019-04-16T15:40:20.815Z,16.23
2019-04-16T15:43:26.866Z,16.77
2019-04-16T15:46:27.082Z,17.82
2019-04-16T15:49:32.283Z,15.85
2019-04-16T15:52:32.295Z,16.42
2019-04-16T15:55:32.530Z,18.80
2019-04-16T15:58:32.804Z,16.23
2019-04-16T16:01:20.484Z,17.73
2019-04-16T16:04:22.532Z,18.57
2019-04-16T16:07:12.383Z,22.10
2019-04-16T16:10:13.706Z,20.68
2019-04-16T16:12:54.609Z,40.45
2019-04-16T16:15:40.197Z,31.35
2019-04-16T16:18:17.335Z,20.68
2019-04-16T16:20:58.040Z,21.93
2019-04-16T16:29:36.285Z,21.33
2019-04-16T16:32:16.673Z,18.35
2019-04-16T16:34:57.414Z,16.35
2019-04-16T16:37:38.478Z,16.20
2019-04-16T16:40:19.049Z,15.90
2019-04-16T16:43:00.017Z,16.03
2019-04-16T16:45:59.878Z,15.25
2019-04-16T16:48:40.783Z,14.65
2019-04-16T16:51:23.209Z,13.70
2019-04-16T16:54:10.140Z,12.90
2019-04-16T16:57:09.973Z,14.05
2019-04-16T16:59:56.183Z,13.30
2019-04-16T17:03:01.633Z,13.15
2019-04-16T17:05:42.226Z,12.55
2019-04-16T17:08:22.880Z,13.48
2019-04-16T17:11:16.279Z,12.13
2019-04-16T17:13:46.620Z,12.18
2019-04-16T17:16:27.246Z,12.73
2019-04-16T17:19:07.825Z,12.43
2019-04-16T17:21:48.729Z,11.90
2019-04-16T17:24:29.442Z,12.13
2019-04-16T17:27:10.600Z,11.40
2019-04-16T17:29:51.213Z,12.47
2019-04-16T17:32:31.866Z,12.23
2019-04-16T17:35:15.540Z,11.63
2019-04-16T17:37:55.402Z,13.45
2019-04-16T17:41:00.993Z,11.83
2019-04-16T17:44:03.934Z,11.60
2019-04-16T17:47:04.222Z,10.83
2019-04-16T17:50:07.955Z,9.70
2019-04-16T17:53:07.569Z,10.98
2019-04-16T17:56:07.792Z,7.50
2019-04-16T17:59:09.568Z,7.08
2019-04-16T18:02:09.061Z,7.97
2019-04-16T18:05:08.730Z,7.37
2019-04-16T18:08:09.083Z,7.22
2019-04-16T18:14:07.639Z,7.58
2019-04-16T18:17:06.666Z,7.33
2019-04-16T18:20:06.302Z,6.65
2019-04-16T18:22:55.587Z,8.18
2019-04-16T18:25:57.262Z,6.97
2019-04-16T18:28:42.093Z,7.97
2019-04-16T18:31:42.491Z,8.07
2019-04-16T18:34:43.522Z,7.00
2019-04-16T18:37:49.968Z,6.55
2019-04-16T18:40:49.659Z,7.40
2019-04-16T18:43:49.091Z,6.53
2019-04-16T18:46:55.265Z,7.60
2019-04-16T18:49:36.424Z,7.03
2019-04-16T18:52:17.416Z,6.60
2019-04-16T18:54:57.908Z,6.65
2019-04-16T18:57:39.294Z,7.80
2019-04-16T19:00:39.084Z,7.65
2019-04-16T19:03:22.408Z,6.65
2019-04-16T19:06:03.415Z,6.43
2019-04-16T19:08:44.151Z,5.70
2019-04-16T19:11:25.036Z,5.97
2019-04-16T19:14:05.678Z,6.07
2019-04-16T19:16:46.335Z,6.42
2019-04-16T19:19:28.493Z,6.90
2019-04-16T19:22:09.340Z,5.60
2019-04-16T19:24:49.751Z,5.60
2019-04-16T19:27:30.835Z,6.30
2019-04-16T19:30:12.606Z,4.90
2019-04-16T19:32:53.469Z,4.67
2019-04-16T19:35:34.220Z,4.53
2019-04-16T19:38:15.006Z,4.58
2019-04-16T19:40:56.218Z,4.80
2019-04-16T19:43:36.858Z,4.30
2019-04-16T19:46:17.203Z,4.30
2019-04-16T19:49:00.336Z,4.50
2019-04-16T19:51:41.282Z,4.60
2019-04-16T19:54:22.550Z,4.60
2019-04-16T19:57:03.095Z,4.58
2019-04-16T19:59:46.383Z,4.75
2019-04-16T20:02:26.472Z,4.30
2019-04-16T20:05:07.307Z,4.53
2019-04-16T20:07:47.942Z,4.50
2019-04-16T20:10:28.603Z,5.47
2019-04-16T20:13:09.107Z,4.30
2019-04-16T20:15:49.721Z,5.55
2019-04-16T20:18:30.540Z,4.40
2019-04-16T20:21:11.036Z,5.58
2019-04-16T20:23:51.692Z,4.80
2019-04-16T20:26:33.608Z,4.25
2019-04-16T20:29:14.853Z,5.45
2019-04-16T20:31:55.572Z,4.30
2019-04-16T20:34:36.268Z,4.42
2019-04-16T20:37:16.972Z,4.08
2019-04-16T20:39:57.641Z,4.25
2019-04-16T20:42:38.428Z,4.05
2019-04-16T20:45:19.154Z,4.03
2019-04-16T20:48:00.444Z,4.57
2019-04-16T20:50:41.140Z,4.22
2019-04-16T20:53:21.992Z,4.40
2019-04-16T20:56:02.917Z,4.00
2019-04-16T20:58:43.789Z,4.10
2019-04-16T21:01:33.739Z,4.80
2019-04-16T21:04:07.552Z,4.40
2019-04-16T21:06:48.457Z,5.10
2019-04-16T21:09:30.901Z,4.45
2019-04-16T21:12:13.171Z,5.33
2019-04-16T21:14:55.465Z,4.10
2019-04-16T21:17:39.129Z,3.93
2019-04-16T21:20:20.264Z,4.85
2019-04-16T21:23:03.477Z,3.90
2019-04-16T21:25:45.903Z,4.58
2019-04-16T21:31:28.788Z,5.05
2019-04-16T21:37:27.107Z,5.55
2019-04-16T21:40:07.584Z,5.65
2019-04-16T21:42:48.300Z,6.53
2019-04-16T21:45:29.254Z,8.00
2019-04-16T21:48:12.378Z,5.78
2019-04-16T21:50:54.117Z,8.70
2019-04-16T21:53:35.444Z,7.10
2019-04-16T21:56:16.132Z,6.72
2019-04-16T21:58:57.107Z,5.12
2019-04-16T22:01:43.151Z,5.47
2019-04-16T22:04:24.115Z,4.70
2019-04-16T22:07:07.450Z,4.97
2019-04-16T22:09:47.728Z,5.15
2019-04-16T22:12:28.376Z,4.97
2019-04-16T22:15:08.802Z,5.22
2019-04-16T22:17:49.423Z,4.95
2019-04-16T22:20:31.850Z,4.75
2019-04-16T22:23:12.309Z,4.47
2019-04-16T22:25:52.829Z,4.65
2019-04-16T22:28:33.616Z,5.17
2019-04-16T22:31:13.984Z,4.70
2019-04-16T22:33:54.654Z,4.20
2019-04-16T22:36:35.459Z,4.65
2019-04-16T22:45:32.524Z,4.47
2019-04-16T22:48:12.864Z,4.30
2019-04-16T22:50:53.563Z,5.08
2019-04-16T22:53:34.552Z,5.37
2019-04-16T22:56:15.312Z,4.60
2019-04-16T22:58:56.256Z,7.55
2019-04-16T23:01:38.560Z,4.92
2019-04-16T23:04:19.088Z,7.45
2019-04-16T23:06:59.888Z,4.70
2019-04-16T23:09:40.439Z,4.40
2019-04-16T23:12:27.148Z,4.47
2019-04-16T23:15:05.227Z,4.65
2019-04-16T23:17:46.885Z,4.20
2019-04-16T23:20:29.762Z,4.47
2019-04-16T23:23:10.090Z,4.70
2019-04-16T23:25:50.513Z,4.97
2019-04-16T23:28:30.873Z,4.60
2019-04-16T23:31:11.633Z,4.45
2019-04-16T23:33:52.074Z,4.95
2019-04-16T23:36:33.369Z,4.60
2019-04-16T23:39:14.198Z,4.95
2019-04-16T23:41:54.656Z,4.90
2019-04-16T23:45:00.556Z,5.05
2019-04-16T23:51:05.025Z,5.03
2019-04-16T23:53:58.817Z,5.30
2019-04-16T23:56:44.701Z,6.42
2019-04-16T23:59:45.008Z,5.30
